Time;durP1;ratioP1;P1;durP2;ratioP2;P2;SDS_P1;SDS_P2;PMS_P1;PMS_P2;Temp;Humidity;BMP_temperature;BMP_pressure;BME280_temperature;BME280_humidity;BME280_pressure;Samples;Min_cycle;Max_cycle;Signal;HPM_P1;HPM_P2
2022/07/31 00:00:41;;;;;;;10.35;7.43;;;;;;;20.77;65.20;93716.25;5073917;28;20075;-80
2022/07/31 00:03:07;;;;;;;8.90;7.65;;;;;;;20.94;64.19;93737.22;5075476;28;20502;-79
2022/07/31 00:05:32;;;;;;;9.05;7.50;;;;;;;20.97;64.89;93739.16;5075203;28;20028;-78
2022/07/31 00:08:00;;;;;;;10.65;7.30;;;;;;;20.99;65.14;93728.72;5074601;28;20524;-79
2022/07/31 00:10:25;;;;;;;10.57;7.03;;;;;;;20.95;64.98;93717.13;5073996;28;20140;-79
2022/07/31 00:12:51;;;;;;;9.85;7.85;;;;;;;20.99;65.05;93718.69;5074648;28;20489;-77
2022/07/31 00:15:17;;;;;;;8.10;7.03;;;;;;;20.98;64.36;93721.78;5074534;28;20129;-79
2022/07/31 00:17:43;;;;;;;10.30;8.07;;;;;;;20.83;64.11;93720.13;5075069;28;20051;-78
2022/07/31 00:20:14;;;;;;;10.25;7.40;;;;;;;20.82;64.45;93737.53;5073418;28;20048;-78
2022/07/31 00:22:44;;;;;;;8.05;6.78;;;;;;;20.79;64.77;93747.16;5073717;28;20502;-78
2022/07/31 00:25:11;;;;;;;8.90;7.50;;;;;;;20.64;64.43;93739.34;5075002;28;20131;-78
2022/07/31 00:27:38;;;;;;;10.93;7.13;;;;;;;20.65;64.14;93743.59;5075334;28;20020;-78
2022/07/31 00:30:04;;;;;;;9.18;7.32;;;;;;;20.67;64.34;93763.69;5073178;28;20107;-78
2022/07/31 00:32:30;;;;;;;9.48;7.75;;;;;;;20.67;63.83;93766.41;5073530;28;20028;-78
2022/07/31 00:34:55;;;;;;;10.38;7.43;;;;;;;20.70;63.04;93754.06;5073650;28;20475;-79
2022/07/31 00:37:21;;;;;;;9.00;7.55;;;;;;;20.55;62.95;93718.84;5076016;28;20020;-78
2022/07/31 00:39:46;;;;;;;12.50;7.82;;;;;;;20.51;62.92;93758.59;5074939;28;20394;-79
2022/07/31 00:42:23;;;;;;;8.70;7.30;;;;;;;20.27;63.25;93758.41;5072799;28;20017;-78
2022/07/31 00:44:48;;;;;;;9.55;7.13;;;;;;;20.17;63.30;93743.69;5072110;28;20494;-78
2022/07/31 00:47:14;;;;;;;8.55;7.22;;;;;;;20.28;63.11;93766.16;5073018;28;20063;-79
2022/07/31 00:49:40;;;;;;;8.60;6.68;;;;;;;20.25;62.94;93756.09;5081857;28;20486;-77
2022/07/31 00:52:05;;;;;;;8.70;7.13;;;;;;;20.22;62.94;93762.25;5073540;28;20032;-80
2022/07/31 00:54:31;;;;;;;8.57;6.55;;;;;;;20.13;62.83;93759.84;5073553;28;20021;-78
2022/07/31 00:56:57;;;;;;;9.68;7.03;;;;;;;20.15;62.84;93759.44;5074010;28;20028;-78
2022/07/31 00:59:22;;;;;;;6.82;5.53;;;;;;;20.07;62.84;93757.84;5072129;28;20028;-78
2022/07/31 01:01:48;;;;;;;7.93;5.25;;;;;;;19.96;63.38;93754.28;5072705;28;20470;-77
2022/07/31 01:04:15;;;;;;;8.75;5.32;;;;;;;19.74;63.39;93746.03;5079072;28;20081;-78
2022/07/31 01:06:40;;;;;;;8.75;5.68;;;;;;;19.75;63.48;93747.56;5071523;28;20024;-79
2022/07/31 01:09:06;;;;;;;8.25;5.95;;;;;;;19.48;64.03;93746.16;5069880;28;20025;-78
2022/07/31 01:11:49;;;;;;;7.53;6.10;;;;;;;19.72;63.58;93759.09;5071538;28;20028;-80
2022/07/31 01:14:18;;;;;;;7.72;5.38;;;;;;;19.74;63.82;93767.63;5070551;28;20027;-79
2022/07/31 01:16:47;;;;;;;6.90;5.55;;;;;;;19.69;63.21;93751.78;5070902;28;20477;-78
2022/07/31 01:19:39;;;;;;;9.25;6.00;;;;;;;19.81;62.89;93764.19;5072920;28;20064;-80
2022/07/31 01:22:42;;;;;;;5.53;4.95;;;;;;;19.82;62.86;93749.56;5064771;28;20032;-79
2022/07/31 01:25:25;;;;;;;7.18;5.93;;;;;;;19.67;63.11;93742.47;5074079;28;20165;-78
2022/07/31 01:28:20;;;;;;;9.63;5.82;;;;;;;19.70;62.95;93756.00;5073774;28;20044;-80
2022/07/31 01:30:53;;;;;;;8.20;5.63;;;;;;;19.56;63.26;93757.78;5072514;28;20474;-77
2022/07/31 01:33:22;;;;;;;8.63;5.82;;;;;;;19.58;63.39;93761.66;5088307;28;20192;-78
2022/07/31 01:35:53;;;;;;;8.60;5.30;;;;;;;19.37;63.69;93747.16;5071979;28;20085;-78
2022/07/31 01:38:26;;;;;;;7.88;5.38;;;;;;;19.15;64.49;93757.72;5073457;28;20290;-78
2022/07/31 01:41:03;;;;;;;7.13;5.47;;;;;;;19.15;64.32;93754.25;5080616;28;20028;-79
2022/07/31 01:43:32;;;;;;;8.90;4.85;;;;;;;19.13;64.73;93762.69;5075312;28;20024;-78
2022/07/31 01:46:01;;;;;;;7.18;5.45;;;;;;;19.18;64.83;93748.13;5076207;28;20417;-77
2022/07/31 01:48:30;;;;;;;6.15;4.85;;;;;;;19.21;64.46;93733.91;5079060;28;20093;-77
2022/07/31 01:50:59;;;;;;;7.32;4.18;;;;;;;19.33;64.57;93744.44;5080306;28;20111;-77
2022/07/31 01:53:26;;;;;;;9.13;5.05;;;;;;;19.20;64.75;93737.75;5076858;28;20024;-76
2022/07/31 01:55:54;;;;;;;8.15;5.25;;;;;;;19.17;64.48;93741.16;5076833;28;20024;-78
2022/07/31 01:58:22;;;;;;;5.57;4.63;;;;;;;19.26;64.52;93738.97;5074991;28;20024;-77
2022/07/31 02:00:49;;;;;;;6.22;4.97;;;;;;;19.39;64.26;93752.97;5075052;28;20032;-78
2022/07/31 02:03:16;;;;;;;8.85;5.10;;;;;;;19.37;64.29;93761.41;5075354;28;20397;-76
2022/07/31 02:05:43;;;;;;;7.10;4.65;;;;;;;19.41;64.02;93751.44;5077119;28;20111;-76
2022/07/31 02:08:11;;;;;;;6.70;4.90;;;;;;;19.44;63.87;93739.94;5077024;28;20722;-77
2022/07/31 02:10:38;;;;;;;6.57;4.25;;;;;;;19.56;63.82;93757.78;5079311;28;20020;-78
2022/07/31 02:13:05;;;;;;;7.50;4.93;;;;;;;19.57;64.07;93759.34;5076784;28;20046;-77
2022/07/31 02:15:31;;;;;;;6.45;4.35;;;;;;;19.60;63.52;93748.56;5078521;28;20027;-78
2022/07/31 02:17:59;;;;;;;8.90;4.47;;;;;;;19.61;63.33;93755.53;5075444;28;20112;-77
2022/07/31 02:20:26;;;;;;;6.47;4.57;;;;;;;19.65;63.22;93760.97;5075306;28;20076;-77
2022/07/31 02:22:52;;;;;;;7.60;4.97;;;;;;;19.54;62.93;93730.41;5075859;28;20035;-76
2022/07/31 02:25:18;;;;;;;5.82;4.80;;;;;;;19.59;62.90;93736.25;5076405;28;20089;-78
2022/07/31 02:27:45;;;;;;;5.55;4.40;;;;;;;19.53;62.76;93728.88;5077781;28;20024;-76
2022/07/31 02:30:12;;;;;;;6.40;4.10;;;;;;;19.57;62.62;93732.38;5076710;28;20027;-78
2022/07/31 02:32:38;;;;;;;7.57;4.45;;;;;;;19.59;62.65;93740.88;5077962;28;20059;-79
2022/07/31 02:35:06;;;;;;;7.00;4.32;;;;;;;19.31;62.66;93709.75;5076408;28;20760;-77
2022/07/31 02:37:35;;;;;;;5.15;4.43;;;;;;;19.50;62.45;93738.50;5075184;28;20031;-78
2022/07/31 02:40:02;;;;;;;8.90;4.10;;;;;;;19.61;62.71;93763.63;5077906;28;20143;-79
2022/07/31 02:42:29;;;;;;;6.85;4.90;;;;;;;19.42;63.84;93763.78;5078186;28;20020;-76
2022/07/31 02:44:55;;;;;;;4.90;4.25;;;;;;;19.37;64.15;93774.13;5074771;28;20028;-77
2022/07/31 02:47:22;;;;;;;7.47;5.45;;;;;;;19.35;64.13;93773.72;5075121;28;20028;-79
2022/07/31 02:49:48;;;;;;;11.68;5.35;;;;;;;19.25;64.89;93781.34;5076351;28;20090;-77
2022/07/31 02:52:14;;;;;;;10.90;7.85;;;;;;;19.24;64.86;93757.44;5074210;28;20052;-79
2022/07/31 02:54:41;;;;;;;11.60;6.70;;;;;;;19.44;64.90;93772.28;5076973;28;20121;-78
2022/07/31 02:57:06;;;;;;;9.48;6.28;;;;;;;19.35;64.63;93752.94;5074748;28;20036;-79
2022/07/31 02:59:36;;;;;;;9.77;7.55;;;;;;;19.58;64.53;93772.47;5076777;28;20035;-79
2022/07/31 03:02:02;;;;;;;9.88;7.78;;;;;;;19.67;64.14;93778.34;5074882;28;20474;-80
2022/07/31 03:04:28;;;;;;;12.48;7.43;;;;;;;19.62;64.07;93761.69;5072850;28;20038;-78
2022/07/31 03:06:54;;;;;;;9.93;7.55;;;;;;;19.66;63.88;93744.41;5076855;28;20036;-79
2022/07/31 03:09:20;;;;;;;20.20;8.25;;;;;;;19.82;63.70;93770.38;5075948;28;20064;-78
2022/07/31 03:11:46;;;;;;;9.90;7.53;;;;;;;19.79;63.89;93766.50;5076195;28;21043;-78
2022/07/31 03:14:12;;;;;;;12.38;7.65;;;;;;;19.85;63.95;93770.38;5071867;28;20028;-78
2022/07/31 03:16:39;;;;;;;11.07;6.68;;;;;;;19.90;64.02;93782.75;5078005;28;20051;-78
2022/07/31 03:19:07;;;;;;;11.88;7.25;;;;;;;19.88;64.38;93774.28;5074228;28;20728;-77
2022/07/31 03:21:34;;;;;;;12.45;7.18;;;;;;;19.70;64.30;93731.72;5075561;28;20379;-79
2022/07/31 03:24:01;;;;;;;10.02;8.07;;;;;;;19.84;63.99;93746.50;5076053;28;20024;-80
2022/07/31 03:26:27;;;;;;;9.77;7.70;;;;;;;19.80;64.81;93788.88;5075243;28;20028;-79
2022/07/31 03:28:53;;;;;;;9.55;7.85;;;;;;;19.61;65.03;93771.72;5074048;28;20160;-79
2022/07/31 03:31:18;;;;;;;9.30;7.95;;;;;;;19.54;65.92;93787.84;5075132;28;20520;-78
2022/07/31 03:33:44;;;;;;;14.73;8.65;;;;;;;19.49;65.99;93780.09;5076643;28;20020;-78
2022/07/31 03:36:10;;;;;;;11.68;8.68;;;;;;;19.38;66.81;93789.94;5077925;28;20032;-77
2022/07/31 03:38:35;;;;;;;12.85;8.82;;;;;;;19.33;66.31;93755.22;5073990;28;20400;-79
2022/07/31 03:41:01;;;;;;;12.38;8.35;;;;;;;19.41;65.92;93743.34;5075052;28;20020;-79
2022/07/31 03:43:27;;;;;;;11.15;7.85;;;;;;;19.65;65.76;93761.72;5074653;28;20024;-78
2022/07/31 03:45:53;;;;;;;10.65;7.95;;;;;;;19.75;65.35;93777.25;5074086;28;20068;-79
2022/07/31 03:48:19;;;;;;;13.45;8.27;;;;;;;19.85;65.06;93777.72;5073581;28;20033;-78
2022/07/31 03:50:45;;;;;;;9.40;7.13;;;;;;;19.91;64.56;93778.94;5074478;28;20035;-79
2022/07/31 03:53:11;;;;;;;9.35;6.53;;;;;;;19.88;64.52;93785.84;5074144;28;20024;-79
2022/07/31 03:55:38;;;;;;;9.70;7.47;;;;;;;19.70;64.90;93768.72;5074748;28;20110;-78
2022/07/31 03:58:04;;;;;;;9.38;6.95;;;;;;;19.50;65.69;93797.81;5071904;28;20029;-77
2022/07/31 04:00:30;;;;;;;9.57;6.72;;;;;;;19.28;66.17;93785.22;5077289;28;20051;-78
2022/07/31 04:02:56;;;;;;;7.28;6.00;;;;;;;19.03;67.49;93795.69;5075472;28;20028;-78
2022/07/31 04:05:23;;;;;;;8.23;6.93;;;;;;;18.75;68.19;93796.13;5074102;28;20028;-77
2022/07/31 04:07:49;;;;;;;9.88;7.32;;;;;;;18.55;68.12;93775.00;5076650;28;20143;-77
2022/07/31 04:10:14;;;;;;;8.73;6.93;;;;;;;18.30;69.75;93786.19;5073473;28;20485;-78
2022/07/31 04:12:39;;;;;;;13.48;7.78;;;;;;;18.31;69.67;93803.13;5076127;28;20024;-79
2022/07/31 04:15:05;;;;;;;7.22;6.38;;;;;;;18.36;70.40;93805.53;5074909;28;20907;-77
2022/07/31 04:17:31;;;;;;;9.13;7.10;;;;;;;18.46;69.98;93802.22;5076132;28;20051;-79
2022/07/31 04:19:56;;;;;;;9.52;7.15;;;;;;;18.69;69.29;93811.00;5075856;28;20044;-79
2022/07/31 04:22:22;;;;;;;8.63;6.13;;;;;;;18.61;69.32;93808.59;5074546;28;20385;-80
2022/07/31 04:24:47;;;;;;;8.25;6.50;;;;;;;18.00;70.75;93807.66;5076812;28;20385;-78
2022/07/31 04:27:18;;;;;;;7.63;5.97;;;;;;;17.83;72.13;93800.03;5073294;28;20120;-79
2022/07/31 04:29:44;;;;;;;9.32;7.00;;;;;;;17.49;73.03;93771.38;5074007;28;20035;-79
2022/07/31 04:32:10;;;;;;;11.05;7.40;;;;;;;17.47;73.71;93784.41;5074683;28;20036;-78
2022/07/31 04:34:36;;;;;;;17.25;6.95;;;;;;;17.38;74.40;93756.97;5074327;28;20590;-78
2022/07/31 04:37:01;;;;;;;9.93;7.00;;;;;;;17.27;75.84;93793.63;5073894;28;20165;-79
2022/07/31 04:39:27;;;;;;;10.70;8.20;;;;;;;17.18;76.31;93778.50;5074698;28;20027;-78
2022/07/31 04:41:52;;;;;;;12.23;8.73;;;;;;;17.07;76.78;93796.28;5073074;28;20028;-78
2022/07/31 04:44:18;;;;;;;11.18;8.38;;;;;;;17.18;76.90;93802.69;5074011;28;20032;-78
2022/07/31 04:46:43;;;;;;;12.60;6.93;;;;;;;17.30;77.68;93798.31;5073419;28;20038;-78
2022/07/31 04:49:11;;;;;;;9.88;7.20;;;;;;;17.38;76.60;93789.22;5072262;28;20034;-77
2022/07/31 04:51:37;;;;;;;9.85;7.40;;;;;;;17.27;76.21;93796.31;5073319;28;20036;-79
2022/07/31 04:54:03;;;;;;;10.02;7.43;;;;;;;17.00;76.67;93795.38;5073999;28;20031;-77
2022/07/31 04:56:34;;;;;;;9.02;7.18;;;;;;;17.09;76.68;93787.88;5073319;28;20044;-78
2022/07/31 04:59:06;;;;;;;13.48;8.15;;;;;;;17.17;75.91;93801.13;5072266;28;20024;-79
2022/07/31 05:01:32;;;;;;;8.95;7.03;;;;;;;17.24;75.78;93781.69;5073860;28;20032;-79
2022/07/31 05:03:59;;;;;;;9.77;7.28;;;;;;;17.34;75.57;93805.31;5071668;28;20028;-78
2022/07/31 05:06:58;;;;;;;10.25;7.70;;;;;;;17.38;75.14;93799.97;5072190;28;20023;-79
2022/07/31 05:09:24;;;;;;;10.57;7.57;;;;;;;17.35;74.85;93789.94;5068871;28;20048;-77
2022/07/31 05:11:51;;;;;;;8.57;6.60;;;;;;;17.37;74.78;93819.94;5074196;28;20620;-77
2022/07/31 05:14:18;;;;;;;8.10;6.93;;;;;;;17.25;75.35;93814.72;5075467;28;20056;-78
2022/07/31 05:16:44;;;;;;;8.75;6.90;;;;;;;17.24;74.98;93810.47;5074761;28;20098;-77
2022/07/31 05:19:10;;;;;;;12.10;7.70;;;;;;;16.81;75.26;93765.84;5071403;28;20072;-78
2022/07/31 05:21:35;;;;;;;8.23;6.88;;;;;;;17.20;75.71;93812.31;5075223;28;20120;-78
2022/07/31 05:24:01;;;;;;;8.27;6.68;;;;;;;17.14;74.58;93796.47;5073140;28;20066;-79
2022/07/31 05:26:28;;;;;;;8.23;5.85;;;;;;;17.37;73.65;93815.34;5074308;28;20024;-78
2022/07/31 05:28:55;;;;;;;6.82;5.78;;;;;;;17.50;73.54;93813.28;5081824;28;20028;-78
2022/07/31 05:31:21;;;;;;;9.27;6.25;;;;;;;17.50;73.01;93814.03;5073811;28;20024;-79
2022/07/31 05:33:48;;;;;;;7.28;5.50;;;;;;;17.43;73.09;93786.25;5072595;28;20121;-78
2022/07/31 05:36:15;;;;;;;8.93;6.82;;;;;;;17.76;72.51;93810.66;5071374;28;20032;-78
2022/07/31 05:38:41;;;;;;;9.80;6.80;;;;;;;17.72;71.05;93776.78;5072028;28;20046;-79
2022/07/31 05:41:07;;;;;;;11.23;8.77;;;;;;;17.78;71.33;93803.03;5072086;28;20490;-79
2022/07/31 05:43:33;;;;;;;15.02;9.38;;;;;;;17.73;71.33;93807.91;5073821;28;20055;-79
2022/07/31 05:46:00;;;;;;;12.32;8.35;;;;;;;17.81;70.71;93807.69;5070739;28;20060;-79
2022/07/31 05:48:25;;;;;;;17.23;9.85;;;;;;;17.88;71.00;93804.34;5074255;28;20033;-78
2022/07/31 05:50:51;;;;;;;11.15;7.95;;;;;;;17.63;70.87;93779.72;5074454;28;20367;-80
2022/07/31 05:53:17;;;;;;;13.18;9.68;;;;;;;17.79;72.00;93785.75;5080961;28;20028;-77
2022/07/31 05:55:44;;;;;;;12.82;8.85;;;;;;;18.11;71.97;93793.59;5070551;28;20033;-80
2022/07/31 05:58:11;;;;;;;14.70;9.13;;;;;;;18.28;70.90;93798.50;5074206;28;20032;-80
2022/07/31 06:00:37;;;;;;;16.08;8.65;;;;;;;18.38;70.63;93797.88;5073252;28;20119;-77
2022/07/31 06:03:03;;;;;;;13.63;9.55;;;;;;;17.90;69.91;93724.81;5074181;28;20040;-78
2022/07/31 06:05:29;;;;;;;12.88;9.38;;;;;;;18.33;69.92;93811.63;5072218;28;20055;-79
2022/07/31 06:07:55;;;;;;;13.77;9.18;;;;;;;18.16;68.97;93804.84;5073362;28;20063;-78
2022/07/31 06:10:21;;;;;;;14.23;8.60;;;;;;;18.30;69.89;93802.34;5074129;28;20029;-79
2022/07/31 06:12:47;;;;;;;14.85;10.10;;;;;;;18.23;70.43;93785.34;5072856;28;20383;-79
2022/07/31 06:15:13;;;;;;;13.95;9.23;;;;;;;18.46;68.85;93800.31;5072239;28;20035;-77
2022/07/31 06:17:40;;;;;;;16.55;10.48;;;;;;;18.33;69.63;93800.88;5072683;28;20025;-79
2022/07/31 06:20:06;;;;;;;14.77;10.32;;;;;;;18.25;70.47;93799.19;5080506;28;20094;-77
2022/07/31 06:22:32;;;;;;;14.98;10.07;;;;;;;18.42;70.08;93804.09;5072305;28;20024;-78
2022/07/31 06:24:57;;;;;;;17.33;10.38;;;;;;;18.02;70.54;93759.63;5071204;28;20021;-76
2022/07/31 06:27:22;;;;;;;14.63;10.60;;;;;;;18.40;70.23;93788.28;5071107;28;20028;-77
2022/07/31 06:29:48;;;;;;;15.10;10.05;;;;;;;18.42;69.23;93801.38;5076582;28;20477;-78
2022/07/31 06:32:14;;;;;;;18.75;11.63;;;;;;;18.59;69.72;93803.53;5074038;28;20024;-80
2022/07/31 06:34:40;;;;;;;16.45;11.18;;;;;;;18.44;69.19;93801.78;5075805;28;20080;-78
2022/07/31 06:37:06;;;;;;;15.10;9.80;;;;;;;18.32;70.39;93804.69;5077037;28;20135;-79
2022/07/31 06:39:31;;;;;;;19.58;11.95;;;;;;;18.27;70.77;93794.22;5076669;28;20119;-80
2022/07/31 06:41:57;;;;;;;16.20;10.23;;;;;;;18.19;70.42;93781.78;5073977;28;20020;-77
2022/07/31 06:44:22;;;;;;;16.98;11.90;;;;;;;18.30;70.22;93774.66;5075458;28;20435;-77
2022/07/31 06:46:48;;;;;;;14.73;10.57;;;;;;;18.55;70.08;93797.34;5075574;28;20108;-78
2022/07/31 06:49:14;;;;;;;15.90;10.48;;;;;;;18.64;70.01;93797.84;5075831;28;20921;-78
2022/07/31 06:51:40;;;;;;;14.70;9.82;;;;;;;18.47;69.24;93790.31;5076918;28;20046;-79
2022/07/31 06:54:07;;;;;;;15.35;9.93;;;;;;;18.56;69.82;93788.13;5077478;28;20020;-78
2022/07/31 06:56:34;;;;;;;17.00;10.45;;;;;;;18.56;69.86;93787.34;5076317;28;20036;-78
2022/07/31 06:59:00;;;;;;;15.93;10.65;;;;;;;18.73;68.59;93803.00;5076982;28;20055;-79
2022/07/31 07:01:26;;;;;;;17.48;11.82;;;;;;;18.77;69.01;93815.38;5075218;28;20012;-79
2022/07/31 07:03:52;;;;;;;19.00;11.82;;;;;;;18.77;69.51;93807.28;5075646;28;20039;-78
2022/07/31 07:06:18;;;;;;;20.48;12.30;;;;;;;18.63;69.53;93814.38;5073191;28;20020;-78
2022/07/31 07:08:43;;;;;;;18.05;12.25;;;;;;;18.60;70.11;93799.72;5074871;28;20033;-78
2022/07/31 07:11:09;;;;;;;23.33;11.27;;;;;;;18.74;70.06;93802.63;5074041;28;20089;-77
2022/07/31 07:13:34;;;;;;;17.33;10.73;;;;;;;18.44;70.60;93791.00;5074273;28;20071;-78
2022/07/31 07:16:00;;;;;;;17.25;11.15;;;;;;;18.75;71.26;93814.97;5073795;28;20394;-78
2022/07/31 07:18:25;;;;;;;18.58;12.68;;;;;;;18.63;71.68;93804.38;5074186;28;20510;-78
2022/07/31 07:20:51;;;;;;;23.83;12.32;;;;;;;18.75;72.41;93820.38;5073298;28;20039;-78
2022/07/31 07:23:17;;;;;;;19.23;11.85;;;;;;;18.68;73.17;93814.84;5074609;28;20025;-76
2022/07/31 07:25:43;;;;;;;18.77;11.20;;;;;;;18.71;72.47;93806.06;5073365;28;20031;-78
2022/07/31 07:28:09;;;;;;;18.63;12.95;;;;;;;18.65;71.88;93804.00;5075840;28;20039;-77
2022/07/31 07:30:34;;;;;;;19.75;12.15;;;;;;;18.79;72.14;93825.78;5074958;28;20021;-79
2022/07/31 07:33:00;;;;;;;18.30;11.00;;;;;;;18.86;71.76;93828.59;5074784;28;20028;-78
2022/07/31 07:35:26;;;;;;;18.10;11.05;;;;;;;18.84;70.89;93812.78;5073317;28;20113;-78
2022/07/31 07:37:52;;;;;;;17.85;10.40;;;;;;;18.87;70.95;93817.44;5070475;28;20111;-78
2022/07/31 07:40:18;;;;;;;15.65;11.00;;;;;;;18.65;70.58;93779.78;5071696;28;20111;-78
2022/07/31 07:42:44;;;;;;;19.50;11.27;;;;;;;18.81;70.97;93808.13;5076077;28;20051;-76
2022/07/31 07:45:10;;;;;;;15.75;11.95;;;;;;;18.95;71.39;93812.16;5071168;28;20022;-78
2022/07/31 07:47:36;;;;;;;18.10;10.85;;;;;;;19.27;71.06;93827.56;5073797;28;20028;-80
2022/07/31 07:50:06;;;;;;;20.48;11.18;;;;;;;19.40;70.68;93820.03;5074493;28;20478;-78
2022/07/31 07:52:36;;;;;;;17.85;11.50;;;;;;;19.10;70.92;93790.41;5074308;28;20052;-78
2022/07/31 07:55:03;;;;;;;15.90;10.57;;;;;;;19.05;71.32;93814.22;5072486;28;20031;-80
2022/07/31 07:57:29;;;;;;;15.52;8.68;;;;;;;19.29;71.86;93819.13;5075309;28;20024;-79
2022/07/31 07:59:57;;;;;;;15.13;7.90;;;;;;;19.10;71.95;93824.66;5073893;28;20032;-77
2022/07/31 08:02:23;;;;;;;14.07;8.50;;;;;;;19.23;71.29;93824.06;5072927;28;20494;-79
2022/07/31 08:04:48;;;;;;;11.00;7.63;;;;;;;19.14;70.63;93828.97;5072856;28;20083;-78
2022/07/31 08:07:14;;;;;;;12.07;7.47;;;;;;;18.78;71.21;93811.53;5075247;28;20023;-79
2022/07/31 08:09:39;;;;;;;15.20;7.72;;;;;;;18.93;71.30;93827.91;5074374;28;20035;-80
2022/07/31 08:12:05;;;;;;;13.93;8.00;;;;;;;19.11;71.48;93839.69;5075208;28;20032;-79
2022/07/31 08:14:30;;;;;;;12.68;8.07;;;;;;;18.92;71.81;93842.53;5073378;28;20036;-79
2022/07/31 08:16:56;;;;;;;12.43;8.13;;;;;;;18.69;72.22;93839.84;5072619;28;20163;-77
2022/07/31 08:19:21;;;;;;;12.88;7.93;;;;;;;18.57;73.25;93851.63;5072440;28;20119;-79
2022/07/31 08:21:47;;;;;;;13.68;8.40;;;;;;;18.64;73.12;93854.41;5072660;28;20039;-77
2022/07/31 08:24:15;;;;;;;12.50;7.28;;;;;;;18.57;72.96;93837.38;5073217;28;20715;-79
2022/07/31 08:29:25;;;;;;;11.60;7.13;;;;;;;18.60;72.67;93855.50;5071734;28;20137;-77
2022/07/31 08:31:50;;;;;;;12.32;7.57;;;;;;;18.60;72.74;93842.03;5066531;28;20063;-79
2022/07/31 08:34:16;;;;;;;13.48;7.75;;;;;;;18.59;73.27;93852.03;5072965;28;20508;-78
2022/07/31 08:36:42;;;;;;;12.63;7.50;;;;;;;18.43;72.90;93822.53;5072915;28;20031;-76
2022/07/31 08:39:07;;;;;;;12.73;7.78;;;;;;;18.35;73.49;93841.66;5072836;28;20363;-79
2022/07/31 08:41:33;;;;;;;11.90;7.05;;;;;;;18.32;73.00;93823.53;5073002;28;20020;-79
2022/07/31 08:44:00;;;;;;;11.25;7.55;;;;;;;18.66;73.05;93856.75;5074461;28;20024;-78
2022/07/31 08:46:26;;;;;;;12.27;8.13;;;;;;;18.83;72.80;93859.72;5073371;28;20035;-78
2022/07/31 08:48:55;;;;;;;9.38;6.93;;;;;;;18.78;72.60;93843.88;5075056;28;20100;-79
2022/07/31 08:51:22;;;;;;;11.95;7.38;;;;;;;18.75;72.13;93833.84;5071573;28;20394;-78
2022/07/31 08:53:50;;;;;;;12.55;7.25;;;;;;;18.73;71.82;93841.50;5073764;28;20452;-79
2022/07/31 08:56:16;;;;;;;10.15;7.15;;;;;;;18.73;71.80;93829.94;5073285;28;20114;-77
2022/07/31 08:58:42;;;;;;;9.82;6.93;;;;;;;18.91;71.81;93835.59;5074580;28;20107;-78
2022/07/31 09:01:10;;;;;;;14.02;8.35;;;;;;;19.04;70.96;93850.38;5073871;28;20031;-77
2022/07/31 09:03:36;;;;;;;13.85;8.65;;;;;;;19.19;70.33;93849.41;5074353;28;20533;-80
2022/07/31 09:06:02;;;;;;;11.07;8.00;;;;;;;18.92;70.29;93810.19;5075104;28;20024;-79
2022/07/31 09:08:31;;;;;;;12.48;7.93;;;;;;;19.19;70.56;93830.56;5073769;28;20493;-77
2022/07/31 09:11:02;;;;;;;14.50;8.30;;;;;;;19.33;70.13;93855.78;5074906;28;20071;-79
2022/07/31 09:13:27;;;;;;;14.77;9.68;;;;;;;19.26;69.79;93849.53;5074979;28;20517;-78
2022/07/31 09:15:57;;;;;;;14.07;9.23;;;;;;;19.21;69.31;93828.28;5073718;28;20036;-79
2022/07/31 09:18:23;;;;;;;16.48;11.07;;;;;;;19.32;69.31;93837.25;5074116;28;20032;-78
2022/07/31 09:20:57;;;;;;;15.32;10.23;;;;;;;19.45;69.10;93860.19;5074188;28;20028;-78
2022/07/31 09:23:25;;;;;;;18.45;11.18;;;;;;;19.52;68.69;93849.47;5074469;28;20040;-78
2022/07/31 09:26:02;;;;;;;18.25;11.23;;;;;;;19.64;67.81;93854.63;5073988;28;20036;-79
2022/07/31 09:28:40;;;;;;;18.13;11.52;;;;;;;19.60;67.62;93853.03;5071483;28;20025;-80
2022/07/31 09:31:07;;;;;;;14.98;10.20;;;;;;;19.54;66.74;93847.19;5072452;28;20543;-79
2022/07/31 09:33:35;;;;;;;19.65;11.05;;;;;;;19.66;65.22;93830.72;5073710;28;20031;-79
2022/07/31 09:36:01;;;;;;;15.32;10.93;;;;;;;19.61;64.03;93831.06;5072769;28;20047;-79
2022/07/31 09:38:40;;;;;;;30.25;17.08;;;;;;;19.62;63.09;93834.53;5072944;28;20017;-79
2022/07/31 09:41:15;;;;;;;24.25;14.40;;;;;;;19.61;63.28;93827.59;5079983;28;20028;-78
2022/07/31 09:43:41;;;;;;;20.13;12.52;;;;;;;19.86;63.07;93830.53;5071617;28;20028;-79
2022/07/31 09:46:07;;;;;;;17.30;11.52;;;;;;;19.95;62.58;93831.00;5073643;28;20075;-78
2022/07/31 09:48:34;;;;;;;15.00;9.40;;;;;;;19.70;62.50;93809.94;5074966;28;20028;-78
2022/07/31 09:51:07;;;;;;;24.00;15.80;;;;;;;19.85;62.68;93818.22;5081087;28;20111;-79
2022/07/31 09:53:44;;;;;;;49.10;26.40;;;;;;;20.03;63.02;93825.31;5073357;28;20054;-78
2022/07/31 09:56:14;;;;;;;19.48;11.45;;;;;;;20.12;62.18;93827.72;5071738;28;20032;-79
2022/07/31 09:58:43;;;;;;;14.23;9.73;;;;;;;20.07;61.90;93825.34;5072918;28;20150;-79
2022/07/31 10:01:10;;;;;;;15.15;9.77;;;;;;;20.05;61.95;93819.53;5089418;28;20059;-78
2022/07/31 10:03:38;;;;;;;14.25;9.57;;;;;;;20.08;60.75;93811.50;5072539;28;20042;-77
2022/07/31 10:06:05;;;;;;;14.45;9.25;;;;;;;19.94;61.63;93815.97;5076612;28;20485;-77
2022/07/31 10:08:35;;;;;;;15.05;9.35;;;;;;;19.87;62.09;93813.22;5074824;28;20055;-79
2022/07/31 10:11:05;;;;;;;15.30;9.82;;;;;;;19.81;61.20;93798.50;5076334;28;20111;-80
2022/07/31 10:13:37;;;;;;;17.40;10.40;;;;;;;19.87;60.82;93802.41;5075020;28;20028;-79
2022/07/31 10:16:04;;;;;;;18.70;12.65;;;;;;;19.95;61.09;93782.44;5075584;28;20028;-79
2022/07/31 10:18:33;;;;;;;16.63;10.77;;;;;;;20.10;61.41;93813.78;5076551;28;20044;-77
2022/07/31 10:21:03;;;;;;;16.33;10.35;;;;;;;20.12;61.41;93806.09;5076616;28;20072;-79
2022/07/31 10:23:29;;;;;;;15.93;11.05;;;;;;;20.17;61.15;93800.41;5075003;28;20024;-79
2022/07/31 10:26:01;;;;;;;16.52;11.55;;;;;;;20.19;60.51;93803.47;5077752;28;20054;-77
2022/07/31 10:28:30;;;;;;;17.63;12.00;;;;;;;20.04;61.06;93799.09;5074336;28;20043;-78
2022/07/31 10:30:57;;;;;;;18.67;11.10;;;;;;;20.04;61.64;93794.47;5076180;28;20036;-79
2022/07/31 10:33:22;;;;;;;17.42;12.07;;;;;;;20.06;60.50;93802.19;5076336;28;20028;-77
2022/07/31 10:35:51;;;;;;;17.60;12.05;;;;;;;19.96;59.98;93792.06;5077494;28;20020;-78
2022/07/31 10:38:22;;;;;;;18.75;12.75;;;;;;;19.98;61.11;93766.28;5077470;28;20863;-79
2022/07/31 10:41:03;;;;;;;14.52;10.80;;;;;;;20.31;60.64;93776.19;5077917;28;20035;-78
2022/07/31 10:43:40;;;;;;;16.73;11.23;;;;;;;20.40;59.45;93784.75;5076663;28;20028;-78
2022/07/31 10:46:06;;;;;;;13.15;9.95;;;;;;;20.45;58.12;93779.00;5074568;28;20366;-78
2022/07/31 10:48:31;;;;;;;14.45;10.10;;;;;;;20.25;57.40;93771.50;5078436;28;20081;-78
2022/07/31 10:51:11;;;;;;;11.93;9.23;;;;;;;20.07;57.48;93765.97;5076801;28;20057;-78
2022/07/31 10:53:37;;;;;;;12.70;9.40;;;;;;;20.22;57.73;93767.66;5075430;28;20450;-78
2022/07/31 10:56:09;;;;;;;14.20;8.95;;;;;;;20.13;58.14;93759.06;5075968;28;20711;-79
2022/07/31 10:58:46;;;;;;;15.43;10.52;;;;;;;20.22;57.59;93756.84;5075077;28;20028;-78
2022/07/31 11:01:11;;;;;;;15.70;10.43;;;;;;;20.40;57.21;93775.88;5074622;28;20052;-79
2022/07/31 11:03:45;;;;;;;17.10;11.25;;;;;;;20.27;56.64;93729.50;5075618;28;20493;-78
2022/07/31 11:06:11;;;;;;;19.20;12.45;;;;;;;20.55;57.22;93761.31;5076485;28;20058;-78
2022/07/31 11:08:45;;;;;;;13.90;10.15;;;;;;;20.67;57.53;93761.00;5074945;28;20020;-77
2022/07/31 11:11:11;;;;;;;14.02;8.80;;;;;;;20.85;57.38;93751.03;5073515;28;20028;-77
2022/07/31 11:13:51;;;;;;;13.95;9.23;;;;;;;21.10;56.28;93762.00;5073471;28;20055;-80
2022/07/31 11:16:18;;;;;;;13.05;9.27;;;;;;;21.00;55.54;93743.81;5083108;28;20028;-78
2022/07/31 11:18:55;;;;;;;16.40;9.68;;;;;;;19.73;54.28;93555.59;5076381;28;20052;-80
2022/07/31 11:21:30;;;;;;;11.43;8.85;;;;;;;20.95;55.34;93738.75;5075274;28;20118;-78
2022/07/31 11:23:55;;;;;;;15.93;9.50;;;;;;;20.96;54.27;93718.69;5074305;28;20494;-76
2022/07/31 11:26:21;;;;;;;13.45;9.00;;;;;;;21.13;54.20;93734.19;5075707;28;20053;-78
2022/07/31 11:28:47;;;;;;;12.05;8.13;;;;;;;21.28;55.79;93752.00;5074750;28;20119;-76
2022/07/31 11:31:13;;;;;;;13.60;9.65;;;;;;;21.56;54.58;93751.31;5072928;28;20138;-78